createdAt,value
2019-04-29T00:00:33.861Z,5.85
2019-04-29T00:01:08.896Z,6.47
2019-04-29T00:01:45.248Z,7.20
2019-04-29T00:02:25.612Z,7.00
2019-04-29T00:02:59.186Z,5.65
2019-04-29T00:03:32.707Z,6.22
2019-04-29T00:04:06.359Z,6.80
2019-04-29T00:04:39.943Z,7.95
2019-04-29T00:05:14.104Z,6.97
2019-04-29T00:05:47.606Z,8.18
2019-04-29T00:06:21.229Z,7.35
2019-04-29T00:06:55.228Z,6.85
2019-04-29T00:07:28.739Z,6.15
2019-04-29T00:08:02.231Z,7.83
2019-04-29T00:08:35.918Z,7.00
2019-04-29T00:09:11.958Z,6.28
2019-04-29T00:09:45.562Z,5.53
2019-04-29T00:10:21.207Z,6.30
2019-04-29T00:10:54.705Z,6.47
2019-04-29T00:11:28.283Z,5.97
2019-04-29T00:12:01.962Z,5.85
2019-04-29T00:12:35.571Z,6.03
2019-04-29T00:13:09.102Z,7.03
2019-04-29T00:13:42.707Z,4.80
2019-04-29T00:14:16.247Z,6.35
2019-04-29T00:14:57.165Z,7.53
2019-04-29T00:15:42.210Z,6.92
2019-04-29T00:16:27.155Z,5.55
2019-04-29T00:17:25.473Z,6.70
2019-04-29T00:18:02.451Z,6.95
2019-04-29T00:19:00.831Z,5.65
2019-04-29T00:19:47.334Z,6.83
2019-04-29T00:20:26.251Z,6.78
2019-04-29T00:20:59.743Z,7.10
2019-04-29T00:21:33.261Z,7.50
2019-04-29T00:22:06.787Z,5.83
2019-04-29T00:22:40.295Z,7.95
2019-04-29T00:23:13.937Z,5.58
2019-04-29T00:23:47.450Z,7.60
2019-04-29T00:24:21.080Z,5.85
2019-04-29T00:24:54.604Z,6.22
2019-04-29T00:25:28.122Z,7.72
2019-04-29T00:26:01.640Z,6.62
2019-04-29T00:26:35.334Z,5.70
2019-04-29T00:27:10.142Z,7.55
2019-04-29T00:27:43.671Z,5.65
2019-04-29T00:28:17.175Z,6.90
2019-04-29T00:28:50.690Z,5.08
2019-04-29T00:29:24.261Z,5.15
2019-04-29T00:29:57.873Z,7.60
2019-04-29T00:30:31.474Z,6.78
2019-04-29T00:31:05.083Z,6.83
2019-04-29T00:31:38.638Z,5.67
2019-04-29T00:32:12.802Z,6.40
2019-04-29T00:32:46.382Z,5.85
2019-04-29T00:33:19.909Z,5.60
2019-04-29T00:33:53.386Z,5.70
2019-04-29T00:34:26.873Z,6.08
2019-04-29T00:35:00.376Z,6.17
2019-04-29T00:35:33.907Z,7.10
2019-04-29T00:36:07.938Z,7.87
2019-04-29T00:37:04.820Z,5.92
2019-04-29T00:37:58.037Z,4.92
2019-04-29T00:38:55.802Z,6.35
2019-04-29T00:39:48.444Z,6.15
2019-04-29T00:40:50.152Z,7.95
2019-04-29T00:41:36.818Z,5.12
2019-04-29T00:42:17.016Z,6.12
2019-04-29T00:43:12.259Z,5.92
2019-04-29T00:43:52.604Z,8.05
2019-04-29T00:44:26.065Z,6.17
2019-04-29T00:44:59.550Z,6.42
2019-04-29T00:45:33.106Z,5.90
2019-04-29T00:46:06.674Z,6.35
2019-04-29T00:46:40.158Z,7.12
2019-04-29T00:47:13.874Z,7.20
2019-04-29T00:47:47.358Z,5.75
2019-04-29T00:48:21.021Z,6.62
2019-04-29T00:48:54.584Z,9.00
2019-04-29T00:49:28.081Z,9.33
2019-04-29T00:50:01.495Z,7.05
2019-04-29T00:50:34.990Z,10.55
2019-04-29T00:51:08.495Z,6.00
2019-04-29T00:51:41.978Z,6.45
2019-04-29T00:52:15.593Z,9.15
2019-04-29T00:52:49.070Z,7.05
2019-04-29T00:53:22.614Z,6.25
2019-04-29T00:54:01.867Z,7.03
2019-04-29T00:54:49.974Z,7.78
2019-04-29T00:55:25.537Z,7.42
2019-04-29T00:56:01.071Z,9.60
2019-04-29T00:56:34.564Z,6.70
2019-04-29T00:57:08.034Z,6.47
2019-04-29T00:57:41.569Z,8.55
2019-04-29T00:58:15.046Z,7.65
2019-04-29T00:58:48.713Z,7.53
2019-04-29T00:59:22.267Z,9.18
2019-04-29T00:59:55.785Z,6.25
2019-04-29T01:00:33.414Z,7.37
2019-04-29T01:01:08.416Z,8.13
2019-04-29T01:01:42.384Z,7.37
2019-04-29T01:02:15.943Z,8.05
2019-04-29T01:02:49.462Z,6.50
2019-04-29T01:03:22.951Z,13.40
2019-04-29T01:03:56.446Z,6.33
2019-04-29T01:04:29.969Z,9.10
2019-04-29T01:05:03.576Z,6.62
2019-04-29T01:05:37.343Z,10.70
2019-04-29T01:06:10.850Z,6.60
2019-04-29T01:06:44.442Z,7.70
2019-04-29T01:07:18.309Z,7.95
2019-04-29T01:07:52.717Z,9.43
2019-04-29T01:08:26.326Z,7.37
2019-04-29T01:08:59.892Z,9.25
2019-04-29T01:09:33.388Z,7.65
2019-04-29T01:10:07.090Z,7.75
2019-04-29T01:10:40.611Z,7.28
2019-04-29T01:11:14.183Z,9.73
2019-04-29T01:11:47.671Z,8.55
2019-04-29T01:12:21.226Z,9.63
2019-04-29T01:12:55.577Z,10.18
2019-04-29T01:13:29.065Z,7.03
2019-04-29T01:14:02.546Z,8.85
2019-04-29T01:14:36.065Z,9.83
2019-04-29T01:15:09.775Z,10.70
2019-04-29T01:15:43.266Z,7.30
2019-04-29T01:16:16.743Z,7.87
2019-04-29T01:16:50.233Z,7.78
2019-04-29T01:17:24.115Z,7.62
2019-04-29T01:17:57.723Z,8.35
2019-04-29T01:18:31.202Z,8.23
2019-04-29T01:19:04.777Z,7.58
2019-04-29T01:19:38.271Z,10.60
2019-04-29T01:20:11.829Z,7.80
2019-04-29T01:20:45.312Z,7.72
2019-04-29T01:21:18.801Z,8.85
2019-04-29T01:21:52.360Z,7.17
2019-04-29T01:22:26.649Z,10.88
2019-04-29T01:23:00.195Z,7.22
2019-04-29T01:23:33.723Z,8.58
2019-04-29T01:24:07.206Z,7.75
2019-04-29T01:24:40.683Z,9.33
2019-04-29T01:25:14.189Z,8.55
2019-04-29T01:25:50.571Z,9.20
2019-04-29T01:26:43.210Z,9.48
2019-04-29T01:27:20.971Z,9.18
2019-04-29T01:28:03.602Z,7.22
2019-04-29T01:28:45.346Z,8.13
2019-04-29T01:29:19.249Z,8.40
2019-04-29T01:29:52.738Z,9.05
2019-04-29T01:30:48.122Z,7.42
2019-04-29T01:31:26.071Z,7.80
2019-04-29T01:31:59.567Z,10.10
2019-04-29T01:32:33.053Z,12.18
2019-04-29T01:33:06.538Z,12.65
2019-04-29T01:33:40.141Z,7.70
2019-04-29T01:34:23.838Z,9.23
2019-04-29T01:34:57.341Z,9.73
2019-04-29T01:35:30.832Z,7.45
2019-04-29T01:36:23.591Z,8.63
2019-04-29T01:36:57.106Z,10.40
2019-04-29T01:37:36.788Z,7.10
2019-04-29T01:38:10.271Z,17.85
2019-04-29T01:38:44.727Z,8.35
2019-04-29T01:39:18.222Z,9.93
2019-04-29T01:39:59.381Z,8.13
2019-04-29T01:40:42.183Z,7.85
2019-04-29T01:41:18.238Z,7.28
2019-04-29T01:41:59.533Z,13.08
2019-04-29T01:42:36.260Z,9.28
2019-04-29T01:43:09.747Z,9.73
2019-04-29T01:44:02.931Z,10.28
2019-04-29T01:44:37.581Z,8.90
2019-04-29T01:45:11.067Z,7.60
2019-04-29T01:45:44.555Z,9.45
2019-04-29T01:46:18.080Z,9.35
2019-04-29T01:46:51.592Z,8.23
2019-04-29T01:47:25.071Z,7.53
2019-04-29T01:47:58.554Z,9.85
2019-04-29T01:48:32.025Z,8.23
2019-04-29T01:49:05.731Z,10.18
2019-04-29T01:49:39.454Z,10.80
2019-04-29T01:50:12.947Z,9.33
2019-04-29T01:50:46.434Z,10.68
2019-04-29T01:51:19.999Z,9.05
2019-04-29T01:51:53.531Z,12.65
2019-04-29T01:52:27.059Z,14.28
2019-04-29T01:53:00.630Z,12.23
2019-04-29T01:53:34.222Z,9.30
2019-04-29T01:54:07.735Z,10.30
2019-04-29T01:54:41.248Z,10.63
2019-04-29T01:55:14.853Z,10.15
2019-04-29T01:55:48.414Z,11.18
2019-04-29T01:56:21.908Z,10.98
2019-04-29T01:56:55.401Z,10.58
2019-04-29T01:57:28.893Z,9.25
2019-04-29T01:58:03.826Z,12.28
2019-04-29T01:58:37.298Z,8.30
2019-04-29T01:59:11.855Z,11.05
2019-04-29T01:59:45.352Z,11.45
2019-04-29T02:00:19.136Z,8.25
2019-04-29T02:00:52.613Z,8.70
2019-04-29T02:01:26.117Z,9.93
2019-04-29T02:01:59.615Z,11.90
2019-04-29T02:02:33.111Z,13.50
2019-04-29T02:03:06.634Z,11.00
2019-04-29T02:03:40.200Z,9.60
2019-04-29T02:04:13.706Z,9.55
2019-04-29T02:04:47.187Z,14.33
2019-04-29T02:05:20.763Z,11.65
2019-04-29T02:05:54.266Z,11.18
2019-04-29T02:06:27.787Z,12.82
2019-04-29T02:07:01.290Z,12.95
2019-04-29T02:07:34.784Z,9.63
2019-04-29T02:08:08.346Z,11.43
2019-04-29T02:08:41.905Z,11.22
2019-04-29T02:09:23.045Z,10.82
2019-04-29T02:10:11.591Z,16.52
2019-04-29T02:10:45.104Z,10.93
2019-04-29T02:11:18.602Z,13.10
2019-04-29T02:11:52.109Z,11.48
2019-04-29T02:12:25.526Z,13.88
2019-04-29T02:12:59.026Z,13.68
2019-04-29T02:13:32.527Z,11.68
2019-04-29T02:14:06.030Z,11.28
2019-04-29T02:14:39.590Z,12.40
2019-04-29T02:15:13.158Z,15.35
2019-04-29T02:15:46.649Z,12.85
2019-04-29T02:16:20.136Z,14.35
2019-04-29T02:16:53.635Z,11.50
2019-04-29T02:17:27.148Z,14.43
2019-04-29T02:18:00.652Z,12.90
2019-04-29T02:18:34.142Z,14.58
2019-04-29T02:19:07.713Z,15.58
2019-04-29T02:19:41.236Z,12.00
2019-04-29T02:20:14.743Z,14.25
2019-04-29T02:20:48.226Z,14.87
2019-04-29T02:21:21.942Z,15.25
2019-04-29T02:22:13.626Z,13.90
2019-04-29T02:23:31.249Z,13.93
2019-04-29T02:24:14.908Z,12.73
2019-04-29T02:24:52.713Z,12.85
2019-04-29T02:25:31.085Z,14.30
2019-04-29T02:26:05.265Z,12.80
2019-04-29T02:26:38.763Z,18.80
2019-04-29T02:27:12.257Z,16.10
2019-04-29T02:27:45.747Z,13.78
2019-04-29T02:28:19.325Z,12.73
2019-04-29T02:28:52.822Z,16.10
2019-04-29T02:29:26.309Z,13.95
2019-04-29T02:29:59.842Z,14.90
2019-04-29T02:30:37.661Z,16.37
2019-04-29T02:31:29.275Z,15.20
2019-04-29T02:32:02.755Z,19.48
2019-04-29T02:32:36.243Z,15.78
2019-04-29T02:33:09.743Z,14.55
2019-04-29T02:33:43.302Z,17.40
2019-04-29T02:34:16.791Z,18.87
2019-04-29T02:34:50.278Z,15.13
2019-04-29T02:35:23.779Z,17.80
2019-04-29T02:35:57.365Z,18.10
2019-04-29T02:36:30.783Z,14.50
2019-04-29T02:37:05.944Z,12.70
2019-04-29T02:37:41.180Z,16.35
2019-04-29T02:38:26.099Z,13.68
2019-04-29T02:39:27.895Z,14.47
2019-04-29T02:40:07.681Z,16.93
2019-04-29T02:40:57.821Z,13.30
2019-04-29T02:41:47.031Z,15.70
2019-04-29T02:42:42.844Z,15.58
2019-04-29T02:43:20.559Z,15.65
2019-04-29T02:43:54.263Z,17.02
2019-04-29T02:44:27.746Z,17.17
2019-04-29T02:45:05.610Z,18.75
2019-04-29T02:45:39.607Z,22.35
2019-04-29T02:46:13.140Z,18.82
2019-04-29T02:46:46.703Z,20.45
2019-04-29T02:47:20.223Z,22.15
2019-04-29T02:47:53.719Z,17.23
2019-04-29T02:48:31.646Z,18.27
2019-04-29T02:49:02.431Z,18.17
2019-04-29T02:49:37.099Z,16.00
2019-04-29T02:50:10.765Z,18.65
2019-04-29T02:50:46.100Z,18.42
2019-04-29T02:51:56.656Z,22.55
2019-04-29T02:52:32.334Z,17.30
2019-04-29T02:53:05.979Z,15.90
2019-04-29T02:53:40.626Z,18.90
2019-04-29T02:54:14.250Z,22.02
2019-04-29T02:54:47.943Z,17.35
2019-04-29T02:55:27.662Z,23.35
2019-04-29T02:56:02.278Z,21.50
2019-04-29T02:56:35.859Z,24.47
2019-04-29T02:57:17.138Z,21.95
2019-04-29T02:57:59.969Z,24.75
2019-04-29T02:58:39.482Z,20.23
2019-04-29T02:59:13.630Z,19.42
2019-04-29T02:59:58.801Z,18.82
2019-04-29T03:00:51.554Z,21.45
2019-04-29T03:01:34.089Z,19.17
2019-04-29T03:02:17.134Z,21.55
2019-04-29T03:02:59.169Z,20.37
2019-04-29T03:03:46.923Z,22.60
2019-04-29T03:04:23.922Z,21.15
2019-04-29T03:05:15.366Z,20.68
2019-04-29T03:05:51.779Z,19.60
2019-04-29T03:06:25.467Z,23.35
2019-04-29T03:06:59.483Z,19.90
2019-04-29T03:07:33.630Z,19.02
2019-04-29T03:08:07.171Z,22.82
2019-04-29T03:08:40.838Z,19.15
2019-04-29T03:09:14.466Z,20.32
2019-04-29T03:09:48.313Z,19.07
2019-04-29T03:10:21.901Z,20.90
2019-04-29T03:10:55.593Z,20.25
2019-04-29T03:11:29.232Z,22.42
2019-04-29T03:12:02.858Z,19.10
2019-04-29T03:12:36.447Z,19.00
2019-04-29T03:13:10.124Z,20.50
2019-04-29T03:13:43.816Z,22.95
2019-04-29T03:14:17.749Z,21.27
2019-04-29T03:14:51.379Z,20.88
2019-04-29T03:15:32.356Z,21.33
2019-04-29T03:16:05.881Z,19.55
2019-04-29T03:16:39.598Z,22.20
2019-04-29T03:17:13.243Z,28.17
2019-04-29T03:17:46.800Z,18.20
2019-04-29T03:18:22.448Z,23.10
2019-04-29T03:19:01.289Z,20.55
2019-04-29T03:19:37.763Z,21.93
2019-04-29T03:20:22.969Z,23.67
2019-04-29T03:21:04.028Z,22.15
2019-04-29T03:21:42.555Z,18.92
2019-04-29T03:22:16.237Z,22.90
2019-04-29T03:22:49.766Z,21.65
2019-04-29T03:23:23.865Z,22.37
2019-04-29T03:23:57.419Z,20.65
2019-04-29T03:24:30.953Z,18.73
2019-04-29T03:25:04.488Z,25.52
2019-04-29T03:25:38.018Z,20.17
2019-04-29T03:26:11.604Z,18.65
2019-04-29T03:26:45.121Z,20.00
2019-04-29T03:27:18.697Z,20.12
2019-04-29T03:27:52.326Z,20.12
2019-04-29T03:28:25.885Z,24.12
2019-04-29T03:28:59.387Z,19.85
2019-04-29T03:29:33.003Z,22.13
2019-04-29T03:30:06.738Z,23.83
2019-04-29T03:30:40.275Z,25.37
2019-04-29T03:31:13.791Z,23.50
2019-04-29T03:31:47.443Z,22.20
2019-04-29T03:32:20.961Z,23.52
2019-04-29T03:32:54.479Z,21.60
2019-04-29T03:33:28.048Z,25.45
2019-04-29T03:34:01.554Z,23.20
2019-04-29T03:34:35.069Z,21.12
2019-04-29T03:35:09.084Z,22.55
2019-04-29T03:35:42.579Z,21.55
2019-04-29T03:36:16.083Z,27.75
2019-04-29T03:36:49.579Z,20.30
2019-04-29T03:37:23.098Z,22.52
2019-04-29T03:37:56.662Z,25.52
2019-04-29T03:38:30.175Z,21.12
2019-04-29T03:39:05.709Z,21.30
2019-04-29T03:39:39.276Z,20.23
2019-04-29T03:40:12.990Z,20.70
2019-04-29T03:40:46.488Z,21.77
2019-04-29T03:41:20.047Z,23.50
2019-04-29T03:41:53.573Z,23.18
2019-04-29T03:42:27.535Z,21.52
2019-04-29T03:43:01.148Z,23.00
2019-04-29T03:43:34.707Z,18.35
2019-04-29T03:44:08.223Z,23.47
2019-04-29T03:44:41.912Z,23.07
2019-04-29T03:45:15.419Z,22.73
2019-04-29T03:45:48.994Z,24.40
2019-04-29T03:46:22.494Z,24.50
2019-04-29T03:46:56.200Z,23.60
2019-04-29T03:47:29.794Z,25.25
2019-04-29T03:48:03.342Z,22.77
2019-04-29T03:48:36.993Z,23.10
2019-04-29T03:49:10.534Z,23.95
2019-04-29T03:49:44.141Z,24.50
2019-04-29T03:50:17.679Z,23.38
2019-04-29T03:50:51.229Z,24.18
2019-04-29T03:51:24.838Z,22.70
2019-04-29T03:51:58.454Z,22.90
2019-04-29T03:52:32.226Z,27.27
2019-04-29T03:53:05.896Z,21.75
2019-04-29T03:53:39.424Z,22.40
2019-04-29T03:54:12.951Z,21.35
2019-04-29T03:54:46.606Z,23.73
2019-04-29T03:55:37.609Z,18.00
2019-04-29T03:55:56.559Z,18.25
2019-04-29T03:56:30.215Z,21.15
2019-04-29T03:57:03.756Z,23.30
2019-04-29T03:57:38.778Z,28.27
2019-04-29T03:58:12.354Z,23.80
2019-04-29T03:58:45.870Z,23.73
2019-04-29T03:59:19.442Z,23.32
2019-04-29T04:00:13.732Z,25.77
2019-04-29T04:00:49.417Z,26.95
2019-04-29T04:01:28.740Z,26.42
2019-04-29T04:02:23.118Z,22.48
2019-04-29T04:03:02.432Z,20.65
2019-04-29T04:03:40.629Z,25.37
2019-04-29T04:04:39.144Z,23.25
2019-04-29T04:05:40.873Z,22.52
2019-04-29T04:06:20.708Z,23.65
2019-04-29T04:07:03.854Z,23.95
2019-04-29T04:08:01.682Z,28.60
2019-04-29T04:09:06.295Z,20.43
2019-04-29T04:09:35.810Z,21.07
2019-04-29T04:10:09.508Z,21.05
2019-04-29T04:10:42.990Z,22.17
2019-04-29T04:11:16.448Z,27.20
2019-04-29T04:11:49.989Z,24.75
2019-04-29T04:12:23.479Z,24.02
2019-04-29T04:12:57.003Z,23.77
2019-04-29T04:13:30.416Z,22.42
2019-04-29T04:14:03.914Z,23.85
2019-04-29T04:14:37.403Z,24.80
2019-04-29T04:15:10.960Z,21.42
2019-04-29T04:15:44.443Z,21.07
2019-04-29T04:16:28.322Z,22.70
2019-04-29T04:17:20.687Z,26.55
2019-04-29T04:18:15.036Z,20.80
2019-04-29T04:18:48.581Z,22.85
2019-04-29T04:19:22.327Z,24.32
2019-04-29T04:19:55.927Z,22.95
2019-04-29T04:20:29.434Z,22.60
2019-04-29T04:21:03.271Z,24.23
2019-04-29T04:21:36.837Z,26.50
2019-04-29T04:22:10.742Z,24.75
2019-04-29T04:22:49.980Z,18.60
2019-04-29T04:23:25.684Z,25.30
2019-04-29T04:23:59.207Z,26.68
2019-04-29T04:24:32.931Z,24.52
2019-04-29T04:25:06.553Z,23.12
2019-04-29T04:25:41.985Z,23.80
2019-04-29T04:26:15.528Z,21.12
2019-04-29T04:26:49.054Z,23.47
2019-04-29T04:27:23.534Z,25.10
2019-04-29T04:27:58.800Z,25.57
2019-04-29T04:28:32.294Z,25.02
2019-04-29T04:29:05.791Z,22.75
2019-04-29T04:29:39.275Z,25.65
2019-04-29T04:30:13.173Z,24.27
2019-04-29T04:30:46.707Z,25.57
2019-04-29T04:31:20.248Z,24.57
2019-04-29T04:31:53.651Z,24.43
2019-04-29T04:32:27.136Z,23.20
2019-04-29T04:33:00.747Z,26.23
2019-04-29T04:33:34.219Z,24.85
2019-04-29T04:34:07.725Z,24.55
2019-04-29T04:34:41.319Z,28.50
2019-04-29T04:35:15.071Z,25.48
2019-04-29T04:35:48.647Z,29.32
2019-04-29T04:36:22.145Z,28.27
2019-04-29T04:36:59.965Z,26.12
2019-04-29T04:37:30.885Z,23.20
2019-04-29T04:38:05.104Z,25.55
2019-04-29T04:38:38.647Z,22.32
2019-04-29T04:39:12.139Z,23.90
2019-04-29T04:39:45.627Z,24.18
2019-04-29T04:40:25.008Z,24.65
2019-04-29T04:41:02.424Z,26.48
2019-04-29T04:41:35.927Z,23.70
2019-04-29T04:42:09.455Z,22.60
2019-04-29T04:42:42.962Z,28.65
2019-04-29T04:43:16.562Z,24.65
2019-04-29T04:43:50.074Z,21.07
2019-04-29T04:44:26.261Z,25.35
2019-04-29T04:44:59.757Z,26.93
2019-04-29T04:45:33.271Z,24.77
2019-04-29T04:46:06.876Z,24.40
2019-04-29T04:46:40.475Z,23.92
2019-04-29T04:47:13.964Z,22.85
2019-04-29T04:47:47.494Z,24.95
2019-04-29T04:48:21.459Z,25.43
2019-04-29T04:48:54.941Z,26.12
2019-04-29T04:49:28.452Z,27.10
2019-04-29T04:50:02.000Z,28.40
2019-04-29T04:50:35.558Z,22.90
2019-04-29T04:51:08.992Z,25.20
2019-04-29T04:51:42.547Z,25.35
2019-04-29T04:52:41.472Z,19.77
2019-04-29T04:53:15.009Z,23.55
2019-04-29T04:53:48.671Z,22.25
2019-04-29T04:54:22.203Z,32.33
2019-04-29T04:54:55.803Z,26.05
2019-04-29T04:55:31.491Z,23.00
2019-04-29T04:56:05.008Z,18.92
2019-04-29T04:56:38.512Z,24.00
2019-04-29T04:57:11.998Z,21.37
2019-04-29T04:57:45.561Z,29.05
2019-04-29T04:58:19.036Z,23.40
2019-04-29T04:58:52.711Z,26.23
2019-04-29T04:59:26.231Z,24.60
2019-04-29T04:59:59.746Z,26.30
2019-04-29T05:00:35.030Z,29.02
2019-04-29T05:01:08.535Z,26.87
2019-04-29T05:01:42.178Z,25.08
2019-04-29T05:02:15.621Z,23.65
2019-04-29T05:02:49.122Z,24.67
2019-04-29T05:03:22.740Z,24.63
2019-04-29T05:03:56.429Z,22.70
2019-04-29T05:04:30.035Z,25.43
2019-04-29T05:05:03.879Z,24.50
2019-04-29T05:05:37.375Z,24.57
2019-04-29T05:06:11.001Z,25.05
2019-04-29T05:06:44.706Z,21.40
2019-04-29T05:07:18.278Z,26.12
2019-04-29T05:07:51.854Z,23.75
2019-04-29T05:08:25.352Z,25.95
2019-04-29T05:08:58.930Z,24.30
2019-04-29T05:09:32.428Z,25.10
2019-04-29T05:10:06.140Z,25.30
2019-04-29T05:10:39.629Z,26.45
2019-04-29T05:11:13.138Z,23.27
2019-04-29T05:11:46.634Z,23.57
2019-04-29T05:12:20.151Z,22.27
2019-04-29T05:12:53.746Z,29.25
2019-04-29T05:13:28.570Z,23.85
2019-04-29T05:14:03.250Z,29.80
2019-04-29T05:14:36.820Z,26.10
2019-04-29T05:15:10.331Z,23.85
2019-04-29T05:15:43.831Z,25.10
2019-04-29T05:16:17.334Z,24.35
2019-04-29T05:16:50.835Z,26.27
2019-04-29T05:17:24.357Z,24.63
2019-04-29T05:17:57.864Z,25.77
2019-04-29T05:18:31.487Z,15.90
2019-04-29T05:19:04.996Z,25.02
2019-04-29T05:19:38.537Z,21.70
2019-04-29T05:20:12.022Z,24.15
2019-04-29T05:20:45.507Z,26.85
2019-04-29T05:21:18.991Z,25.68
2019-04-29T05:21:52.509Z,29.60
2019-04-29T05:22:26.005Z,26.23
2019-04-29T05:22:59.615Z,31.12
2019-04-29T05:23:33.188Z,25.35
2019-04-29T05:24:06.802Z,28.65
2019-04-29T05:24:40.298Z,30.57
2019-04-29T05:25:13.819Z,27.75
2019-04-29T05:25:47.341Z,28.55
2019-04-29T05:26:21.184Z,24.47
2019-04-29T05:26:54.693Z,27.95
2019-04-29T05:27:28.196Z,27.85
2019-04-29T05:28:01.795Z,28.45
2019-04-29T05:28:35.288Z,26.68
2019-04-29T05:29:08.801Z,23.85
2019-04-29T05:29:42.300Z,26.70
2019-04-29T05:30:15.799Z,30.17
2019-04-29T05:30:49.293Z,31.23
2019-04-29T05:31:22.835Z,23.18
2019-04-29T05:31:57.577Z,24.70
2019-04-29T05:32:32.652Z,28.40
2019-04-29T05:33:08.709Z,27.02
2019-04-29T05:33:45.281Z,29.80
2019-04-29T05:34:26.113Z,27.73
2019-04-29T05:35:01.935Z,29.05
2019-04-29T05:35:45.493Z,27.42
2019-04-29T05:36:34.080Z,25.15
2019-04-29T05:37:27.417Z,24.57
2019-04-29T05:38:06.332Z,27.48
2019-04-29T05:38:46.807Z,25.08
2019-04-29T05:39:26.750Z,25.62
2019-04-29T05:40:00.302Z,25.82
2019-04-29T05:40:38.130Z,26.95
2019-04-29T05:41:11.722Z,22.42
2019-04-29T05:41:45.234Z,26.20
2019-04-29T05:42:18.849Z,28.83
2019-04-29T05:42:53.993Z,26.27
2019-04-29T05:43:56.099Z,26.90
2019-04-29T05:44:39.062Z,24.32
2019-04-29T05:45:23.443Z,26.70
2019-04-29T05:46:23.204Z,23.55
2019-04-29T05:47:01.062Z,25.80
2019-04-29T05:47:39.931Z,28.67
2019-04-29T05:48:14.416Z,25.05
2019-04-29T05:48:48.022Z,22.93
2019-04-29T05:49:26.117Z,27.10
2019-04-29T05:50:18.467Z,25.08
2019-04-29T05:51:08.082Z,29.70
2019-04-29T05:51:47.149Z,24.87
2019-04-29T05:52:42.374Z,26.70
2019-04-29T05:53:20.055Z,28.50
2019-04-29T05:53:55.176Z,24.12
2019-04-29T05:54:31.650Z,30.68
2019-04-29T05:55:05.078Z,31.55
2019-04-29T05:55:38.619Z,33.73
2019-04-29T05:56:12.116Z,29.00
2019-04-29T05:56:45.638Z,34.30
2019-04-29T05:57:20.413Z,32.53
2019-04-29T05:58:02.931Z,27.98
2019-04-29T05:58:33.005Z,31.90
2019-04-29T05:59:08.494Z,29.75
2019-04-29T05:59:43.345Z,33.73
2019-04-29T06:00:23.189Z,25.77
2019-04-29T06:01:10.768Z,26.33
2019-04-29T06:01:47.344Z,28.10
2019-04-29T06:02:19.480Z,28.73
2019-04-29T06:02:53.054Z,32.80
2019-04-29T06:03:26.576Z,28.17
2019-04-29T06:04:00.081Z,30.32
2019-04-29T06:04:33.706Z,26.23
2019-04-29T06:05:07.420Z,26.77
2019-04-29T06:05:41.038Z,27.25
2019-04-29T06:06:14.547Z,31.23
2019-04-29T06:06:48.038Z,32.83
2019-04-29T06:07:23.116Z,28.17
2019-04-29T06:08:01.202Z,31.77
2019-04-29T06:08:34.544Z,28.57
2019-04-29T06:09:11.576Z,27.82
2019-04-29T06:09:43.485Z,31.80
2019-04-29T06:10:18.157Z,26.40
2019-04-29T06:10:52.366Z,27.48
2019-04-29T06:11:25.871Z,34.03
2019-04-29T06:11:59.463Z,28.42
2019-04-29T06:12:32.989Z,30.08
2019-04-29T06:13:06.495Z,33.50
2019-04-29T06:13:39.998Z,24.92
2019-04-29T06:14:13.508Z,27.37
2019-04-29T06:14:48.310Z,24.80
2019-04-29T06:15:21.975Z,33.73
2019-04-29T06:15:55.808Z,25.95
2019-04-29T06:16:29.343Z,26.37
2019-04-29T06:17:07.510Z,28.40
2019-04-29T06:17:39.942Z,28.30
2019-04-29T06:18:13.570Z,20.25
2019-04-29T06:18:47.216Z,30.15
2019-04-29T06:19:20.930Z,24.20
2019-04-29T06:19:54.813Z,24.10
2019-04-29T06:20:28.310Z,27.60
2019-04-29T06:21:08.701Z,23.07
2019-04-29T06:21:37.042Z,23.20
2019-04-29T06:22:10.561Z,27.10
2019-04-29T06:22:44.123Z,28.07
2019-04-29T06:23:18.992Z,24.75
2019-04-29T06:23:54.665Z,28.25
2019-04-29T06:24:28.285Z,27.13
2019-04-29T06:25:01.831Z,23.83
2019-04-29T06:25:35.370Z,28.02
2019-04-29T06:26:08.885Z,22.82
2019-04-29T06:27:01.620Z,25.70
2019-04-29T06:27:54.337Z,26.70
2019-04-29T06:28:28.191Z,25.45
2019-04-29T06:29:01.785Z,24.18
2019-04-29T06:29:35.302Z,27.25
2019-04-29T06:30:09.307Z,25.52
2019-04-29T06:30:45.097Z,27.73
2019-04-29T06:31:18.031Z,26.93
2019-04-29T06:31:51.514Z,25.92
2019-04-29T06:32:26.438Z,25.88
2019-04-29T06:33:00.190Z,30.75
2019-04-29T06:33:33.797Z,27.62
2019-04-29T06:34:07.299Z,25.90
2019-04-29T06:34:41.799Z,26.25
2019-04-29T06:35:15.698Z,28.38
2019-04-29T06:35:49.288Z,25.08
2019-04-29T06:36:22.964Z,24.87
2019-04-29T06:36:56.522Z,22.85
2019-04-29T06:37:30.358Z,22.42
2019-04-29T06:38:04.198Z,27.15
2019-04-29T06:38:37.705Z,26.57
2019-04-29T06:39:11.213Z,25.72
2019-04-29T06:39:44.821Z,22.32
2019-04-29T06:40:19.176Z,26.60
2019-04-29T06:40:52.713Z,24.37
2019-04-29T06:41:26.212Z,28.15
2019-04-29T06:41:59.729Z,28.23
2019-04-29T06:42:34.362Z,30.62
2019-04-29T06:43:07.999Z,26.75
2019-04-29T06:43:41.665Z,25.75
2019-04-29T06:44:16.551Z,24.45
2019-04-29T06:44:50.761Z,28.02
2019-04-29T06:45:28.746Z,29.75
2019-04-29T06:46:02.257Z,26.40
2019-04-29T06:46:56.318Z,24.37
2019-04-29T06:47:30.175Z,26.00
2019-04-29T06:48:03.682Z,23.35
2019-04-29T06:48:37.191Z,24.45
2019-04-29T06:49:10.920Z,21.23
2019-04-29T06:49:44.650Z,22.70
2019-04-29T06:50:18.319Z,22.82
2019-04-29T06:50:51.836Z,23.85
2019-04-29T06:51:25.414Z,29.95
2019-04-29T06:51:58.947Z,19.77
2019-04-29T06:52:33.151Z,23.10
2019-04-29T06:53:06.763Z,25.97
2019-04-29T06:53:40.258Z,20.70
2019-04-29T06:54:13.912Z,25.60
2019-04-29T06:54:47.413Z,25.50
2019-04-29T06:55:20.996Z,27.58
2019-04-29T06:55:54.591Z,24.12
2019-04-29T06:56:28.174Z,27.62
2019-04-29T06:57:01.711Z,25.57
2019-04-29T06:57:35.282Z,27.42
2019-04-29T06:58:08.825Z,25.88
2019-04-29T06:58:42.567Z,19.87
2019-04-29T06:59:16.100Z,23.30
2019-04-29T06:59:49.695Z,27.25
2019-04-29T07:00:24.032Z,24.85
2019-04-29T07:01:01.210Z,21.82
2019-04-29T07:01:33.105Z,25.23
2019-04-29T07:02:09.387Z,23.22
2019-04-29T07:02:45.556Z,25.40
2019-04-29T07:03:21.006Z,24.23
2019-04-29T07:03:55.752Z,23.45
2019-04-29T07:04:30.625Z,26.97
2019-04-29T07:05:04.627Z,26.45
2019-04-29T07:05:38.277Z,20.70
2019-04-29T07:06:11.761Z,28.15
2019-04-29T07:06:56.691Z,24.15
2019-04-29T07:07:20.504Z,22.30
2019-04-29T07:07:54.001Z,21.87
2019-04-29T07:08:27.550Z,25.37
2019-04-29T07:09:01.084Z,23.62
2019-04-29T07:09:34.666Z,24.50
2019-04-29T07:10:08.392Z,25.80
2019-04-29T07:10:41.977Z,26.40
2019-04-29T07:11:15.958Z,28.65
2019-04-29T07:11:49.561Z,28.83
2019-04-29T07:12:23.140Z,26.52
2019-04-29T07:12:56.801Z,22.17
2019-04-29T07:13:30.299Z,23.47
2019-04-29T07:14:03.895Z,24.52
2019-04-29T07:14:38.584Z,24.25
2019-04-29T07:15:13.878Z,17.85
2019-04-29T07:15:48.940Z,21.75
2019-04-29T07:16:27.286Z,17.98
2019-04-29T07:17:00.759Z,26.07
2019-04-29T07:17:36.495Z,25.70
2019-04-29T07:18:08.419Z,28.00
2019-04-29T07:18:48.335Z,22.37
2019-04-29T07:19:17.178Z,18.17
2019-04-29T07:19:50.662Z,18.73
2019-04-29T07:20:24.244Z,22.48
2019-04-29T07:20:57.806Z,20.37
2019-04-29T07:21:31.481Z,19.87
2019-04-29T07:22:05.078Z,20.48
2019-04-29T07:22:38.502Z,22.22
2019-04-29T07:23:12.073Z,22.27
2019-04-29T07:23:46.379Z,20.43
2019-04-29T07:24:20.457Z,25.40
2019-04-29T07:24:54.198Z,23.90
2019-04-29T07:25:28.803Z,23.57
2019-04-29T07:26:03.496Z,24.70
2019-04-29T07:26:37.032Z,22.48
2019-04-29T07:27:10.542Z,21.48
2019-04-29T07:27:44.611Z,22.90
2019-04-29T07:28:18.659Z,26.77
2019-04-29T07:28:53.513Z,22.75
2019-04-29T07:29:32.821Z,17.80
2019-04-29T07:30:06.701Z,22.52
2019-04-29T07:30:59.902Z,26.70
2019-04-29T07:31:14.448Z,26.17
2019-04-29T07:31:49.166Z,24.47
2019-04-29T07:32:22.801Z,21.80
2019-04-29T07:32:56.316Z,22.90
2019-04-29T07:33:29.821Z,19.90
2019-04-29T07:34:03.325Z,22.42
2019-04-29T07:34:39.541Z,24.75
2019-04-29T07:35:12.457Z,24.20
2019-04-29T07:35:48.087Z,21.02
2019-04-29T07:36:22.737Z,25.05
2019-04-29T07:36:57.626Z,19.32
2019-04-29T07:37:34.012Z,19.70
2019-04-29T07:38:08.609Z,22.85
2019-04-29T07:38:46.583Z,22.13
2019-04-29T07:39:17.518Z,23.30
2019-04-29T07:39:52.115Z,22.85
2019-04-29T07:40:26.666Z,21.25
2019-04-29T07:41:00.254Z,22.73
2019-04-29T07:41:33.876Z,21.40
2019-04-29T07:42:07.520Z,21.75
2019-04-29T07:42:41.318Z,18.00
2019-04-29T07:43:14.833Z,21.42